createdAt,value
2023-01-01T00:00:48.068Z,65.44
2023-01-01T00:01:48.895Z,65.14
2023-01-01T00:02:49.709Z,64.94
2023-01-01T00:03:50.601Z,64.94
2023-01-01T00:04:51.456Z,65.04
2023-01-01T00:05:52.312Z,65.14
2023-01-01T00:06:53.167Z,64.84
2023-01-01T00:07:57.043Z,64.64
2023-01-01T00:08:55.755Z,64.73
2023-01-01T00:09:55.613Z,64.73
2023-01-01T00:10:56.483Z,64.81
2023-01-01T00:11:57.304Z,64.84
2023-01-01T00:12:58.163Z,64.43
2023-01-01T00:13:59.006Z,64.50
2023-01-01T00:14:59.883Z,64.30
2023-01-01T00:16:00.721Z,64.30
2023-01-01T00:17:01.571Z,63.90
2023-01-01T00:18:02.422Z,64.00
2023-01-01T00:19:03.286Z,64.20
2023-01-01T00:20:04.144Z,64.40
2023-01-01T00:21:04.993Z,64.30
2023-01-01T00:22:43.753Z,64.64
2023-01-01T00:23:07.616Z,64.73
2023-01-01T00:24:07.448Z,64.94
2023-01-01T00:25:08.308Z,65.14
2023-01-01T00:26:09.181Z,65.24
2023-01-01T00:27:09.991Z,65.34
2023-01-01T00:28:10.847Z,65.37
2023-01-01T00:29:11.701Z,65.57
2023-01-01T00:30:13.051Z,65.47
2023-01-01T00:31:13.404Z,65.57
2023-01-01T00:32:17.682Z,65.57
2023-01-01T00:33:16.015Z,65.78
2023-01-01T00:34:15.868Z,65.47
2023-01-01T00:35:16.735Z,65.67
2023-01-01T00:36:17.580Z,65.78
2023-01-01T00:37:18.500Z,65.88
2023-01-01T00:38:19.322Z,65.57
2023-01-01T00:39:20.143Z,64.33
2023-01-01T00:40:21.025Z,64.64
2023-01-01T00:41:21.881Z,64.13
2023-01-01T00:42:22.718Z,64.13
2023-01-01T00:43:23.576Z,64.23
2023-01-01T00:44:24.445Z,64.53
2023-01-01T00:45:25.288Z,64.64
2023-01-01T00:46:26.191Z,64.53
2023-01-01T00:47:26.993Z,64.56
2023-01-01T00:48:27.845Z,64.67
2023-01-01T00:49:28.698Z,64.87
2023-01-01T00:50:29.570Z,64.97
2023-01-01T00:51:36.581Z,65.07
2023-01-01T00:52:32.160Z,65.07
2023-01-01T00:53:32.047Z,65.07
2023-01-01T00:54:32.871Z,65.07
2023-01-01T00:55:33.729Z,65.07
2023-01-01T00:56:34.601Z,65.07
2023-01-01T00:57:35.379Z,65.17
2023-01-01T00:58:36.232Z,65.07
2023-01-01T00:59:37.077Z,64.67
2023-01-01T01:00:37.944Z,64.56
2023-01-01T01:01:38.873Z,64.56
2023-01-01T01:02:39.913Z,64.87
2023-01-01T01:03:40.378Z,64.46
2023-01-01T01:04:41.251Z,64.46
2023-01-01T01:05:42.101Z,64.56
2023-01-01T01:06:42.962Z,64.67
2023-01-01T01:07:43.809Z,64.49
2023-01-01T01:08:44.677Z,64.59
2023-01-01T01:09:45.510Z,64.79
2023-01-01T01:10:46.376Z,64.70
2023-01-01T01:11:47.243Z,64.79
2023-01-01T01:12:48.069Z,64.59
2023-01-01T01:13:48.928Z,64.70
2023-01-01T01:14:49.788Z,64.59
2023-01-01T01:15:56.197Z,64.39
2023-01-01T01:16:52.403Z,63.99
2023-01-01T01:17:52.256Z,63.85
2023-01-01T01:18:53.088Z,63.68
2023-01-01T01:19:53.935Z,63.89
2023-01-01T01:20:54.806Z,63.99
2023-01-01T01:21:55.650Z,64.09
2023-01-01T01:22:56.502Z,64.09
2023-01-01T01:23:57.376Z,64.09
2023-01-01T01:24:58.205Z,64.19
2023-01-01T01:25:59.071Z,63.99
2023-01-01T01:26:59.937Z,64.02
2023-01-01T01:28:00.733Z,63.58
2023-01-01T01:29:01.591Z,63.38
2023-01-01T01:30:02.436Z,63.28
2023-01-01T01:31:03.330Z,63.28
2023-01-01T01:32:04.153Z,63.28
2023-01-01T01:33:05.005Z,63.28
2023-01-01T01:34:06.178Z,63.28
2023-01-01T01:35:06.601Z,63.38
2023-01-01T01:36:07.475Z,63.10
2023-01-01T01:37:08.337Z,63.01
2023-01-01T01:38:09.171Z,63.10
2023-01-01T01:39:10.055Z,63.01
2023-01-01T01:40:10.874Z,62.81
2023-01-01T01:41:26.121Z,62.90
2023-01-01T01:42:13.316Z,63.10
2023-01-01T01:43:13.121Z,62.90
2023-01-01T01:44:13.975Z,62.50
2023-01-01T01:45:14.826Z,62.27
2023-01-01T01:46:15.710Z,62.16
2023-01-01T01:47:16.534Z,62.30
2023-01-01T01:48:17.392Z,62.19
2023-01-01T01:49:18.249Z,62.40
2023-01-01T01:50:19.097Z,62.50
2023-01-01T01:51:19.953Z,62.19
2023-01-01T01:52:20.811Z,62.30
2023-01-01T01:53:21.657Z,61.90
2023-01-01T01:54:22.536Z,61.90
2023-01-01T01:55:23.359Z,61.79
2023-01-01T01:56:24.226Z,61.99
2023-01-01T01:57:25.089Z,62.10
2023-01-01T01:58:25.902Z,61.90
2023-01-01T01:59:26.753Z,61.90
2023-01-01T02:00:27.616Z,61.99
2023-01-01T02:01:28.600Z,62.10
2023-01-01T02:02:29.587Z,62.30
2023-01-01T02:03:30.075Z,62.50
2023-01-01T02:04:30.889Z,62.10
2023-01-01T02:05:31.735Z,62.10
2023-01-01T02:06:32.613Z,62.40
2023-01-01T02:07:33.470Z,62.33
2023-01-01T02:08:34.315Z,62.10
2023-01-01T02:09:35.191Z,61.90
2023-01-01T02:10:36.014Z,62.10
2023-01-01T02:11:36.886Z,61.99
2023-01-01T02:12:37.747Z,61.99
2023-01-01T02:13:38.531Z,62.19
2023-01-01T02:14:39.382Z,62.43
2023-01-01T02:15:40.242Z,62.23
2023-01-01T02:16:41.095Z,62.23
2023-01-01T02:17:41.945Z,62.12
2023-01-01T02:18:42.793Z,62.33
2023-01-01T02:19:43.669Z,62.43
2023-01-01T02:20:44.501Z,62.43
2023-01-01T02:21:45.361Z,62.33
2023-01-01T02:22:46.214Z,62.53
2023-01-01T02:23:47.057Z,62.43
2023-01-01T02:24:47.929Z,62.23
2023-01-01T02:25:48.766Z,62.53
2023-01-01T02:26:50.048Z,62.33
2023-01-01T02:27:50.419Z,62.43
2023-01-01T02:28:51.250Z,62.43
2023-01-01T02:29:52.101Z,62.33
2023-01-01T02:30:52.980Z,62.33
2023-01-01T02:31:53.814Z,62.12
2023-01-01T02:32:54.664Z,62.33
2023-01-01T02:33:55.526Z,62.33
2023-01-01T02:34:56.384Z,62.26
2023-01-01T02:35:57.213Z,62.12
2023-01-01T02:36:58.134Z,62.35
2023-01-01T02:37:58.928Z,62.46
2023-01-01T02:38:59.778Z,62.56
2023-01-01T02:40:00.678Z,62.56
2023-01-01T02:41:01.482Z,62.46
2023-01-01T02:42:02.349Z,62.26
2023-01-01T02:43:03.212Z,62.35
2023-01-01T02:45:13.503Z,62.46
2023-01-01T02:47:23.808Z,62.56
2023-01-01T02:48:24.661Z,62.46
2023-01-01T02:49:25.512Z,62.56
2023-01-01T02:50:26.364Z,62.66
2023-01-01T02:51:27.214Z,62.76
2023-01-01T02:52:28.073Z,62.66
2023-01-01T02:53:28.928Z,62.66
2023-01-01T02:54:29.784Z,62.26
2023-01-01T02:55:30.665Z,62.46
2023-01-01T02:56:31.483Z,62.46
2023-01-01T02:57:32.353Z,62.46
2023-01-01T02:58:33.222Z,62.46
2023-01-01T02:59:34.029Z,62.76
2023-01-01T03:00:34.883Z,62.76
2023-01-01T03:01:35.835Z,62.66
2023-01-01T03:02:36.838Z,62.56
2023-01-01T03:03:37.255Z,62.46
2023-01-01T03:04:38.062Z,62.46
2023-01-01T03:05:38.915Z,62.35
2023-01-01T03:06:39.887Z,62.35
2023-01-01T03:07:40.762Z,62.26
2023-01-01T03:08:41.616Z,62.56
2023-01-01T03:09:42.473Z,62.46
2023-01-01T03:10:43.345Z,62.76
2023-01-01T03:11:44.180Z,62.76
2023-01-01T03:12:45.035Z,62.76
2023-01-01T03:13:45.901Z,62.56
2023-01-01T03:14:46.716Z,62.66
2023-01-01T03:15:47.606Z,62.76
2023-01-01T03:16:48.421Z,62.96
2023-01-01T03:17:49.283Z,62.76
2023-01-01T03:18:50.151Z,62.66
2023-01-01T03:19:51.002Z,62.96
2023-01-01T03:20:51.850Z,62.86
2023-01-01T03:21:52.706Z,62.96
2023-01-01T03:22:53.575Z,62.96
2023-01-01T03:23:54.423Z,63.17
2023-01-01T03:24:55.263Z,63.07
2023-01-01T03:25:56.136Z,62.96
2023-01-01T03:26:56.962Z,62.96
2023-01-01T03:27:57.826Z,63.07
2023-01-01T03:28:58.702Z,63.17
2023-01-01T03:29:59.492Z,63.07
2023-01-01T03:31:00.441Z,63.07
2023-01-01T03:32:01.258Z,63.17
2023-01-01T03:33:02.116Z,63.17
2023-01-01T03:34:02.969Z,63.27
2023-01-01T03:35:03.821Z,63.37
2023-01-01T03:36:04.673Z,63.57
2023-01-01T03:37:05.528Z,63.07
2023-01-01T03:38:06.386Z,63.17
2023-01-01T03:39:07.239Z,63.47
2023-01-01T03:40:08.110Z,63.57
2023-01-01T03:41:08.960Z,63.37
2023-01-01T03:42:09.797Z,63.17
2023-01-01T03:43:10.658Z,63.37
2023-01-01T03:44:11.539Z,63.37
2023-01-01T03:45:12.346Z,63.37
2023-01-01T03:46:13.235Z,63.60
2023-01-01T03:47:14.049Z,63.67
2023-01-01T03:48:14.913Z,63.70
2023-01-01T03:49:15.769Z,63.90
2023-01-01T03:50:16.615Z,63.81
2023-01-01T03:51:17.487Z,63.81
2023-01-01T03:52:18.345Z,64.01
2023-01-01T03:53:19.443Z,63.67
2023-01-01T03:54:19.797Z,63.98
2023-01-01T03:55:20.657Z,64.01
2023-01-01T03:56:21.522Z,63.67
2023-01-01T03:57:22.353Z,63.81
2023-01-01T03:58:23.214Z,64.01
2023-01-01T03:59:24.090Z,64.11
2023-01-01T04:00:24.892Z,64.21
2023-01-01T04:01:25.842Z,63.87
2023-01-01T04:02:26.919Z,64.01
2023-01-01T04:03:27.455Z,64.01
2023-01-01T04:04:28.300Z,64.07
2023-01-01T04:05:29.153Z,64.11
2023-01-01T04:06:30.005Z,64.11
2023-01-01T04:07:30.858Z,64.31
2023-01-01T04:08:31.737Z,64.41
2023-01-01T04:09:32.607Z,64.51
2023-01-01T04:10:33.436Z,64.51
2023-01-01T04:11:34.311Z,64.31
2023-01-01T04:12:35.140Z,64.41
2023-01-01T04:13:36.006Z,64.51
2023-01-01T04:14:36.974Z,64.51
2023-01-01T04:15:37.754Z,64.72
2023-01-01T04:16:38.671Z,64.82
2023-01-01T04:17:39.485Z,64.92
2023-01-01T04:18:40.347Z,64.92
2023-01-01T04:19:41.198Z,64.82
2023-01-01T04:20:42.058Z,64.92
2023-01-01T04:21:42.903Z,64.82
2023-01-01T04:22:43.760Z,64.82
2023-01-01T04:23:44.624Z,64.72
2023-01-01T04:24:45.472Z,64.72
2023-01-01T04:25:46.327Z,64.58
2023-01-01T04:26:47.204Z,64.61
2023-01-01T04:27:48.040Z,64.92
2023-01-01T04:28:48.900Z,65.02
2023-01-01T04:29:49.867Z,65.22
2023-01-01T04:31:51.397Z,65.22
2023-01-01T04:32:52.283Z,65.22
2023-01-01T04:33:53.444Z,65.22
2023-01-01T04:34:53.805Z,65.32
2023-01-01T04:35:54.658Z,65.32
2023-01-01T04:36:55.515Z,65.32
2023-01-01T04:37:56.363Z,65.42
2023-01-01T04:38:57.227Z,65.42
2023-01-01T04:39:58.129Z,65.62
2023-01-01T04:40:58.982Z,65.53
2023-01-01T04:41:59.866Z,65.62
2023-01-01T04:43:00.688Z,65.83
2023-01-01T04:44:01.551Z,65.83
2023-01-01T04:45:02.524Z,65.83
2023-01-01T04:46:03.355Z,65.93
2023-01-01T04:47:04.180Z,65.73
2023-01-01T04:48:05.024Z,65.70
2023-01-01T04:49:05.885Z,65.83
2023-01-01T04:50:06.736Z,65.83
2023-01-01T04:51:07.604Z,66.03
2023-01-01T04:52:08.440Z,65.90
2023-01-01T04:53:09.298Z,66.13
2023-01-01T04:54:10.154Z,66.33
2023-01-01T04:55:11.014Z,66.24
2023-01-01T04:56:11.860Z,66.24
2023-01-01T04:57:12.757Z,66.33
2023-01-01T04:58:13.573Z,66.44
2023-01-01T04:59:14.439Z,66.54
2023-01-01T05:00:15.397Z,66.54
2023-01-01T05:01:16.292Z,66.44
2023-01-01T05:02:17.187Z,66.64
2023-01-01T05:03:18.024Z,66.64
2023-01-01T05:04:18.871Z,66.64
2023-01-01T05:05:19.733Z,66.64
2023-01-01T05:06:20.582Z,66.64
2023-01-01T05:07:21.435Z,66.54
2023-01-01T05:08:22.288Z,66.64
2023-01-01T05:09:23.162Z,66.74
2023-01-01T05:10:24.010Z,67.05
2023-01-01T05:11:24.878Z,67.14
2023-01-01T05:12:25.738Z,67.35
2023-01-01T05:13:26.569Z,67.45
2023-01-01T05:14:27.430Z,67.45
2023-01-01T05:15:28.396Z,67.45
2023-01-01T05:16:29.257Z,67.55
2023-01-01T05:17:30.060Z,67.85
2023-01-01T05:18:30.906Z,67.65
2023-01-01T05:19:31.778Z,67.76
2023-01-01T05:20:32.622Z,67.65
2023-01-01T05:21:33.471Z,67.65
2023-01-01T05:22:34.334Z,67.76
2023-01-01T05:23:35.172Z,67.89
2023-01-01T05:24:36.032Z,67.99
2023-01-01T05:25:36.883Z,67.99
2023-01-01T05:26:37.735Z,68.19
2023-01-01T05:27:38.616Z,68.19
2023-01-01T05:28:39.438Z,68.29
2023-01-01T05:29:40.297Z,68.29
2023-01-01T05:30:41.265Z,68.40
2023-01-01T05:31:42.108Z,68.60
2023-01-01T05:32:42.926Z,68.70
2023-01-01T05:33:43.779Z,68.70
2023-01-01T05:34:44.665Z,68.49
2023-01-01T05:35:45.500Z,68.49
2023-01-01T05:36:46.352Z,68.49
2023-01-01T05:37:47.208Z,68.60
2023-01-01T05:38:48.060Z,68.60
2023-01-01T05:39:48.922Z,68.49
2023-01-01T05:40:49.774Z,68.49
2023-01-01T05:41:50.630Z,68.49
2023-01-01T05:42:51.508Z,68.49
2023-01-01T05:43:52.346Z,68.70
2023-01-01T05:44:53.198Z,68.40
2023-01-01T05:45:54.222Z,68.49
2023-01-01T05:46:55.016Z,68.40
2023-01-01T05:47:55.865Z,68.49
2023-01-01T05:48:56.718Z,68.73
2023-01-01T05:49:57.583Z,68.73
2023-01-01T05:50:58.442Z,68.60
2023-01-01T05:51:59.290Z,68.70
2023-01-01T05:53:00.136Z,68.73
2023-01-01T05:54:01.023Z,69.03
2023-01-01T05:55:01.853Z,69.03
2023-01-01T05:56:02.716Z,68.93
2023-01-01T05:57:03.560Z,69.13
2023-01-01T05:58:04.431Z,69.03
2023-01-01T05:59:05.275Z,69.03
2023-01-01T06:00:06.127Z,69.13
2023-01-01T06:01:07.134Z,68.93
2023-01-01T06:02:08.074Z,69.13
2023-01-01T06:03:08.446Z,69.24
2023-01-01T06:04:09.316Z,69.54
2023-01-01T06:05:10.163Z,69.74
2023-01-01T06:06:11.032Z,70.05
2023-01-01T06:07:11.888Z,70.25
2023-01-01T06:08:12.740Z,70.35
2023-01-01T06:09:13.611Z,70.59
2023-01-01T06:10:14.468Z,70.89
2023-01-01T06:11:15.323Z,70.48
2023-01-01T06:12:16.176Z,70.35
2023-01-01T06:13:17.068Z,70.56
2023-01-01T06:14:17.882Z,70.45
2023-01-01T06:15:18.745Z,70.45
2023-01-01T06:16:19.759Z,70.45
2023-01-01T06:17:20.546Z,70.65
2023-01-01T06:18:21.400Z,71.06
2023-01-01T06:19:22.253Z,71.97
2023-01-01T06:20:23.120Z,72.01
2023-01-01T06:21:23.977Z,72.82
2023-01-01T06:22:24.823Z,72.52
2023-01-01T06:23:25.672Z,73.02
2023-01-01T06:24:26.528Z,73.22
2023-01-01T06:25:27.390Z,72.82
2023-01-01T06:26:28.249Z,72.82
2023-01-01T06:27:29.096Z,72.31
2023-01-01T06:28:29.969Z,72.11
2023-01-01T06:29:30.810Z,72.52
2023-01-01T06:30:31.700Z,72.52
2023-01-01T06:31:38.356Z,71.91
2023-01-01T06:32:34.271Z,71.57
2023-01-01T06:33:34.119Z,71.57
2023-01-01T06:34:34.977Z,71.67
2023-01-01T06:35:35.839Z,72.17
2023-01-01T06:36:36.699Z,72.41
2023-01-01T06:37:37.567Z,72.41
2023-01-01T06:38:38.397Z,72.21
2023-01-01T06:39:39.249Z,72.41
2023-01-01T06:40:40.116Z,72.61
2023-01-01T06:41:40.964Z,72.61
2023-01-01T06:42:41.819Z,72.31
2023-01-01T06:43:42.689Z,71.97
2023-01-01T06:44:43.520Z,71.77
2023-01-01T06:45:44.382Z,71.88
2023-01-01T06:46:45.435Z,72.08
2023-01-01T06:47:46.224Z,71.97
2023-01-01T06:48:47.093Z,71.97
2023-01-01T06:49:47.934Z,72.21
2023-01-01T06:50:48.944Z,72.17
2023-01-01T06:51:49.296Z,72.41
2023-01-01T06:52:50.145Z,72.52
2023-01-01T06:53:51.006Z,72.31
2023-01-01T06:54:51.857Z,72.61
2023-01-01T06:55:57.128Z,72.41
2023-01-01T06:56:53.359Z,72.21
2023-01-01T06:57:54.209Z,72.08
2023-01-01T06:58:55.101Z,71.88
2023-01-01T06:59:55.930Z,71.97
2023-01-01T07:00:57.006Z,71.77
2023-01-01T07:01:57.555Z,71.47
2023-01-01T07:02:58.010Z,71.67
2023-01-01T07:03:58.406Z,71.77
2023-01-01T07:04:59.258Z,71.67
2023-01-01T07:06:00.128Z,71.67
2023-01-01T07:07:00.985Z,71.67
2023-01-01T07:08:01.827Z,71.57
2023-01-01T07:09:02.680Z,71.88
2023-01-01T07:10:03.541Z,71.97
2023-01-01T07:11:04.412Z,72.08
2023-01-01T07:12:05.267Z,72.17
2023-01-01T07:13:06.118Z,71.97
2023-01-01T07:14:06.994Z,72.17
2023-01-01T07:15:07.821Z,72.58
2023-01-01T07:16:13.149Z,72.68
2023-01-01T07:17:09.434Z,72.58
2023-01-01T07:18:10.210Z,72.68
2023-01-01T07:19:11.074Z,72.89
2023-01-01T07:20:11.925Z,72.99
2023-01-01T07:21:12.944Z,73.09
2023-01-01T07:22:13.301Z,73.22
2023-01-01T07:23:14.159Z,73.29
2023-01-01T07:24:15.020Z,73.43
2023-01-01T07:25:15.874Z,73.49
2023-01-01T07:26:16.732Z,73.63
2023-01-01T07:27:17.595Z,73.63
2023-01-01T07:28:18.445Z,73.83
2023-01-01T07:29:19.323Z,74.14
2023-01-01T07:30:20.155Z,74.04
2023-01-01T07:31:21.108Z,73.93
2023-01-01T07:32:22.021Z,73.73
2023-01-01T07:33:22.803Z,73.93
2023-01-01T07:34:23.654Z,73.83
2023-01-01T07:35:24.505Z,73.73
2023-01-01T07:36:25.443Z,73.73
2023-01-01T07:37:26.301Z,73.93
2023-01-01T07:38:27.150Z,74.04
2023-01-01T07:39:28.006Z,74.34
2023-01-01T07:40:28.879Z,74.65
2023-01-01T07:41:29.718Z,74.44
2023-01-01T07:42:30.588Z,74.65
2023-01-01T07:43:31.425Z,74.74
2023-01-01T07:44:32.296Z,75.05
2023-01-01T07:45:33.129Z,75.25
2023-01-01T07:46:34.039Z,75.15
2023-01-01T07:47:34.957Z,75.49
2023-01-01T07:48:40.074Z,75.49
2023-01-01T07:49:36.648Z,75.70
2023-01-01T07:50:37.496Z,76.10
2023-01-01T07:51:38.359Z,76.40
2023-01-01T07:52:39.213Z,76.40
2023-01-01T07:53:40.074Z,76.51
2023-01-01T07:54:40.953Z,76.71
2023-01-01T07:55:41.816Z,76.71
2023-01-01T07:56:42.672Z,77.01
2023-01-01T07:57:43.540Z,77.42
2023-01-01T07:58:44.392Z,77.25
2023-01-01T07:59:45.302Z,77.22
2023-01-01T08:00:46.104Z,77.97
2023-01-01T08:01:47.525Z,78.27
2023-01-01T08:02:48.224Z,78.37
2023-01-01T08:03:48.646Z,78.88
2023-01-01T08:04:49.495Z,79.49
2023-01-01T08:05:50.355Z,79.59
2023-01-01T08:06:51.212Z,80.24
2023-01-01T08:07:52.076Z,80.64
2023-01-01T08:08:52.931Z,80.84
2023-01-01T08:09:53.782Z,81.05
2023-01-01T08:10:58.869Z,81.05
2023-01-01T08:11:56.405Z,81.45
2023-01-01T08:12:56.269Z,81.15
2023-01-01T08:13:57.132Z,81.45
2023-01-01T08:14:58.004Z,81.59
2023-01-01T08:15:58.931Z,81.39
2023-01-01T08:16:59.356Z,81.09
2023-01-01T08:18:00.319Z,81.45
2023-01-01T08:19:01.103Z,81.56
2023-01-01T08:20:02.002Z,81.70
2023-01-01T08:21:02.821Z,81.90
2023-01-01T08:22:03.679Z,81.66
2023-01-01T08:23:07.438Z,82.00
2023-01-01T08:24:05.074Z,82.31
2023-01-01T08:25:05.944Z,81.90
2023-01-01T08:26:07.423Z,81.86
2023-01-01T08:27:07.774Z,82.40
2023-01-01T08:28:08.642Z,82.20
2023-01-01T08:29:09.518Z,82.00
2023-01-01T08:30:10.392Z,82.51
2023-01-01T08:31:11.247Z,82.61
2023-01-01T08:32:12.444Z,82.40
2023-01-01T08:33:12.920Z,82.40
2023-01-01T08:34:13.725Z,82.26
2023-01-01T08:35:14.579Z,82.57
2023-01-01T08:36:15.428Z,82.78
2023-01-01T08:37:16.294Z,82.78
2023-01-01T08:38:17.152Z,82.71
2023-01-01T08:39:18.003Z,83.01
2023-01-01T08:40:18.863Z,82.71
2023-01-01T08:41:19.713Z,82.78
2023-01-01T08:42:20.575Z,83.01
2023-01-01T08:43:21.443Z,82.87
2023-01-01T08:44:22.293Z,83.12
2023-01-01T08:45:23.169Z,82.71
2023-01-01T08:46:24.062Z,82.67
2023-01-01T08:47:24.869Z,82.67
2023-01-01T08:48:30.717Z,82.57
2023-01-01T08:49:27.475Z,82.57
2023-01-01T08:50:27.374Z,82.57
2023-01-01T08:51:28.181Z,82.47
2023-01-01T08:52:29.046Z,82.37
2023-01-01T08:53:29.926Z,82.26
2023-01-01T08:54:30.752Z,82.37
2023-01-01T08:55:31.597Z,82.26
2023-01-01T08:56:32.453Z,82.06
2023-01-01T08:57:33.327Z,82.17
2023-01-01T08:58:34.168Z,81.31
2023-01-01T08:59:35.021Z,81.31
2023-01-01T09:00:35.910Z,80.91
2023-01-01T09:01:36.843Z,80.91
2023-01-01T09:02:38.024Z,80.91
2023-01-01T09:03:38.801Z,80.71
2023-01-01T09:04:39.137Z,80.80
2023-01-01T09:05:39.985Z,80.60
2023-01-01T09:06:40.848Z,80.60
2023-01-01T09:07:41.706Z,80.71
2023-01-01T09:08:42.554Z,80.50
2023-01-01T09:09:43.407Z,80.50
2023-01-01T09:10:44.261Z,80.40
2023-01-01T09:11:45.116Z,80.71
2023-01-01T09:12:46.000Z,80.50
2023-01-01T09:13:46.850Z,80.30
2023-01-01T09:14:47.704Z,80.50
2023-01-01T09:15:48.630Z,80.40
2023-01-01T09:16:49.479Z,80.30
2023-01-01T09:17:50.313Z,80.10
2023-01-01T09:18:51.266Z,80.16
2023-01-01T09:19:52.064Z,80.16
2023-01-01T09:20:52.924Z,80.06
2023-01-01T09:21:53.759Z,79.96
2023-01-01T09:22:54.627Z,79.96
2023-01-01T09:23:55.476Z,79.75
2023-01-01T09:24:56.329Z,79.96
2023-01-01T09:25:57.172Z,79.96
2023-01-01T09:26:58.031Z,79.75
2023-01-01T09:27:58.883Z,79.65
2023-01-01T09:28:59.746Z,79.65
2023-01-01T09:30:00.596Z,79.75
2023-01-01T09:31:01.461Z,79.25
2023-01-01T09:32:02.357Z,79.14
2023-01-01T09:33:03.193Z,79.35
2023-01-01T09:34:04.145Z,78.94
2023-01-01T09:35:04.916Z,78.74
2023-01-01T09:36:05.768Z,78.44
2023-01-01T09:37:06.623Z,78.40
2023-01-01T09:38:07.480Z,78.60
2023-01-01T09:39:08.334Z,78.60
2023-01-01T09:40:09.186Z,78.70
2023-01-01T09:41:10.039Z,78.70
2023-01-01T09:42:10.901Z,78.70
2023-01-01T09:43:11.940Z,78.84
2023-01-01T09:44:12.305Z,78.80
2023-01-01T09:45:13.154Z,78.91
2023-01-01T09:46:14.061Z,78.91
2023-01-01T09:47:14.872Z,78.70
2023-01-01T09:48:15.732Z,78.91
2023-01-01T09:49:16.696Z,78.91
2023-01-01T09:50:17.476Z,78.80
2023-01-01T09:51:18.324Z,78.80
2023-01-01T09:52:19.176Z,78.80
2023-01-01T09:53:20.039Z,78.80
2023-01-01T09:54:20.919Z,78.91
2023-01-01T09:55:21.776Z,78.80
2023-01-01T09:56:22.630Z,78.70
2023-01-01T09:57:23.481Z,78.91
2023-01-01T09:58:24.345Z,78.80
2023-01-01T09:59:25.216Z,79.00
2023-01-01T10:00:26.044Z,78.91
2023-01-01T10:01:27.096Z,79.00
2023-01-01T10:02:27.569Z,78.80
2023-01-01T10:03:28.412Z,78.70
2023-01-01T10:04:29.475Z,78.60
2023-01-01T10:05:29.792Z,78.70
2023-01-01T10:06:30.664Z,78.91
2023-01-01T10:07:31.532Z,78.91
2023-01-01T10:08:32.397Z,78.91
2023-01-01T10:09:33.252Z,79.11
2023-01-01T10:10:34.123Z,79.21
2023-01-01T10:11:34.955Z,79.31
2023-01-01T10:12:35.827Z,79.31
2023-01-01T10:13:36.683Z,79.51
2023-01-01T10:14:37.538Z,79.41
2023-01-01T10:15:38.384Z,79.55
2023-01-01T10:16:39.291Z,79.65
2023-01-01T10:17:40.096Z,79.55
2023-01-01T10:18:40.964Z,79.61
2023-01-01T10:19:41.921Z,79.72
2023-01-01T10:20:42.701Z,79.72
2023-01-01T10:21:47.250Z,79.92
2023-01-01T10:22:44.252Z,79.96
2023-01-01T10:23:45.117Z,79.92
2023-01-01T10:24:45.969Z,79.92
2023-01-01T10:25:46.819Z,79.82
2023-01-01T10:26:47.670Z,79.82
2023-01-01T10:27:52.477Z,79.61
2023-01-01T10:28:50.280Z,79.85
2023-01-01T10:29:50.261Z,79.72
2023-01-01T10:30:51.082Z,79.92
2023-01-01T10:31:51.999Z,79.96
2023-01-01T10:32:52.798Z,79.92
2023-01-01T10:33:53.939Z,80.02
2023-01-01T10:34:54.405Z,80.02
2023-01-01T10:35:55.182Z,80.02
2023-01-01T10:36:56.034Z,80.12
2023-01-01T10:37:56.887Z,80.22
2023-01-01T10:38:57.750Z,80.32
2023-01-01T10:39:58.603Z,80.43
2023-01-01T10:40:59.455Z,80.43
2023-01-01T10:42:00.310Z,80.12
2023-01-01T10:43:01.200Z,80.12
2023-01-01T10:44:02.036Z,80.12
2023-01-01T10:45:02.885Z,80.02
2023-01-01T10:46:03.786Z,80.02
2023-01-01T10:47:04.615Z,80.02
2023-01-01T10:48:05.452Z,80.22
2023-01-01T10:49:06.310Z,80.22
2023-01-01T10:50:07.292Z,80.12
2023-01-01T10:51:08.072Z,80.22
2023-01-01T10:52:08.930Z,80.12
2023-01-01T10:53:09.793Z,80.22
2023-01-01T10:54:10.659Z,80.02
2023-01-01T10:55:11.516Z,80.32
2023-01-01T10:56:12.381Z,80.12
2023-01-01T10:57:13.226Z,80.12
2023-01-01T10:58:14.079Z,80.32
2023-01-01T10:59:14.942Z,80.22
2023-01-01T11:00:15.800Z,80.22
2023-01-01T11:01:16.813Z,80.53
2023-01-01T11:02:17.483Z,80.53
2023-01-01T11:03:17.912Z,80.43
2023-01-01T11:04:18.960Z,80.32
2023-01-01T11:05:21.911Z,80.43
2023-01-01T11:06:20.230Z,80.43
2023-01-01T11:07:21.096Z,80.32
2023-01-01T11:08:21.936Z,80.12
2023-01-01T11:09:22.804Z,80.12
2023-01-01T11:10:23.661Z,80.12
2023-01-01T11:11:24.510Z,80.22
2023-01-01T11:13:03.098Z,80.22
2023-01-01T11:13:27.115Z,80.02
2023-01-01T11:14:26.991Z,80.12
2023-01-01T11:15:27.843Z,80.12
2023-01-01T11:16:28.765Z,80.32
2023-01-01T11:17:29.598Z,80.02
2023-01-01T11:18:30.431Z,79.92
2023-01-01T11:19:31.285Z,80.12
2023-01-01T11:20:32.252Z,79.98
2023-01-01T11:21:33.033Z,80.12
2023-01-01T11:22:33.887Z,80.32
2023-01-01T11:23:34.740Z,80.32
2023-01-01T11:24:35.611Z,80.32
2023-01-01T11:25:36.456Z,80.53
2023-01-01T11:26:37.310Z,80.53
2023-01-01T11:27:38.163Z,80.63
2023-01-01T11:28:39.019Z,80.43
2023-01-01T11:29:39.882Z,80.53
2023-01-01T11:30:40.768Z,80.53
2023-01-01T11:31:41.592Z,80.63
2023-01-01T11:32:42.457Z,80.53
2023-01-01T11:33:43.291Z,80.43
2023-01-01T11:34:44.159Z,80.22
2023-01-01T11:35:45.120Z,80.29
2023-01-01T11:36:45.894Z,80.29
2023-01-01T11:37:46.746Z,79.98
2023-01-01T11:38:47.598Z,80.19
2023-01-01T11:39:48.462Z,80.19
2023-01-01T11:40:49.321Z,80.43
2023-01-01T11:41:50.195Z,80.12
2023-01-01T11:42:51.020Z,80.32
2023-01-01T11:43:52.781Z,80.53
2023-01-01T11:44:52.626Z,80.53
2023-01-01T11:45:53.567Z,80.73
2023-01-01T11:46:54.387Z,80.73
2023-01-01T11:47:55.248Z,80.83
2023-01-01T11:48:56.081Z,81.04
2023-01-01T11:49:56.947Z,81.13
2023-01-01T11:50:57.911Z,81.04
2023-01-01T11:51:58.728Z,81.04
2023-01-01T11:52:59.584Z,81.04
2023-01-01T11:54:00.428Z,81.04
2023-01-01T11:55:01.292Z,81.04
2023-01-01T11:56:02.152Z,81.04
2023-01-01T11:57:03.004Z,81.24
2023-01-01T11:58:03.853Z,81.18
2023-01-01T11:59:04.709Z,81.38
2023-01-01T12:00:05.571Z,81.38
2023-01-01T12:01:06.446Z,81.18
2023-01-01T12:02:07.332Z,81.24
2023-01-01T12:03:08.149Z,81.13
2023-01-01T12:04:09.111Z,81.24
2023-01-01T12:05:09.949Z,81.04
2023-01-01T12:06:10.928Z,81.13
2023-01-01T12:07:11.713Z,81.13
2023-01-01T12:08:12.565Z,81.27
2023-01-01T12:09:18.280Z,81.54
2023-01-01T12:10:15.191Z,81.85
2023-01-01T12:11:15.033Z,81.44
2023-01-01T12:12:15.898Z,81.48
2023-01-01T12:13:16.749Z,81.58
2023-01-01T12:14:17.596Z,81.58
2023-01-01T12:15:18.488Z,81.68
2023-01-01T12:16:19.363Z,81.88
2023-01-01T12:17:20.201Z,81.99
2023-01-01T12:18:21.051Z,81.88
2023-01-01T12:19:21.886Z,81.78
2023-01-01T12:20:22.750Z,81.78
2023-01-01T12:21:23.734Z,81.68
2023-01-01T12:22:24.507Z,81.48
2023-01-01T12:23:25.372Z,81.48
2023-01-01T12:24:26.216Z,81.78
2023-01-01T12:25:27.080Z,81.54
2023-01-01T12:26:27.938Z,81.44
2023-01-01T12:27:28.789Z,81.34
2023-01-01T12:28:29.641Z,81.34
2023-01-01T12:29:30.498Z,81.34
2023-01-01T12:30:31.358Z,81.13
2023-01-01T12:31:32.247Z,81.13
2023-01-01T12:32:33.068Z,81.04
2023-01-01T12:33:34.448Z,81.34
2023-01-01T12:34:34.779Z,81.24
2023-01-01T12:35:35.651Z,81.44
2023-01-01T12:36:36.622Z,81.24
2023-01-01T12:37:37.404Z,81.34
2023-01-01T12:38:38.255Z,81.44
2023-01-01T12:39:39.109Z,81.44
2023-01-01T12:40:39.969Z,81.04
2023-01-01T12:41:40.837Z,81.24
2023-01-01T12:42:41.696Z,81.58
2023-01-01T12:43:42.556Z,81.64
2023-01-01T12:44:43.429Z,81.48
2023-01-01T12:45:44.439Z,80.93
2023-01-01T12:46:44.892Z,80.73
2023-01-01T12:47:45.711Z,80.32
2023-01-01T12:48:46.595Z,80.32
2023-01-01T12:49:47.440Z,80.32
2023-01-01T12:50:55.033Z,80.22
2023-01-01T12:51:50.160Z,80.43
2023-01-01T12:52:49.937Z,80.53
2023-01-01T12:53:50.812Z,80.63
2023-01-01T12:54:51.660Z,80.49
2023-01-01T12:55:52.521Z,80.43
2023-01-01T12:56:53.372Z,80.53
2023-01-01T12:57:54.224Z,80.63
2023-01-01T12:58:55.075Z,80.73
2023-01-01T12:59:55.948Z,80.53
2023-01-01T13:00:56.792Z,80.53
2023-01-01T13:01:57.798Z,80.43
2023-01-01T13:02:58.739Z,80.43
2023-01-01T13:03:59.616Z,80.53
2023-01-01T13:05:00.445Z,80.53
2023-01-01T13:06:01.303Z,80.53
2023-01-01T13:07:02.273Z,80.83